Time;durP1;ratioP1;P1;durP2;ratioP2;P2;SDS_P1;SDS_P2;PMS_P1;PMS_P2;Temp;Humidity;BMP_temperature;BMP_pressure;BME280_temperature;BME280_humidity;BME280_pressure;Samples;Min_cycle;Max_cycle;Signal;HPM_P1;HPM_P2
2021/12/30 00:01:28;;;;;;;31.13;14.93;;;;;;;9.65;93.22;99786.88;8550823;33;20457;-79
2021/12/30 00:06:38;;;;;;;28.23;14.15;;;;;;;9.75;92.38;99797.66;8550161;33;20609;-77
2021/12/30 00:11:43;;;;;;;31.33;12.57;;;;;;;9.70;91.87;99783.78;8546220;33;20438;-79
2021/12/30 00:17:06;;;;;;;27.10;11.32;;;;;;;9.42;92.71;99788.84;8543377;33;20195;-78
2021/12/30 00:22:10;;;;;;;24.25;11.88;;;;;;;9.53;92.30;99785.25;8549489;33;20392;-78
2021/12/30 00:27:14;;;;;;;24.38;10.30;;;;;;;9.44;92.10;99781.53;8556472;33;20179;-77
2021/12/30 00:32:17;;;;;;;22.80;9.82;;;;;;;9.57;91.43;99794.75;8566361;33;20971;-79
2021/12/30 00:37:20;;;;;;;30.10;13.10;;;;;;;9.51;91.46;99789.88;8569618;33;20418;-80
2021/12/30 00:42:25;;;;;;;23.27;10.45;;;;;;;9.44;91.24;99802.97;8572056;33;20513;-80
2021/12/30 00:47:28;;;;;;;26.73;11.73;;;;;;;9.58;90.75;99825.91;8576487;33;20302;-79
2021/12/30 00:52:31;;;;;;;26.52;11.45;;;;;;;9.49;90.90;99840.97;8577671;33;20152;-79
2021/12/30 00:57:35;;;;;;;28.15;10.85;;;;;;;9.41;90.60;99870.25;8577886;33;20205;-80
2021/12/30 01:02:38;;;;;;;26.47;10.23;;;;;;;9.38;89.71;99872.31;8575258;33;20436;-79
2021/12/30 01:07:42;;;;;;;31.42;12.50;;;;;;;9.48;89.69;99889.34;8564550;33;20551;-79
2021/12/30 01:12:47;;;;;;;27.92;11.43;;;;;;;9.51;88.89;99889.09;8571426;33;20148;-79
2021/12/30 01:17:56;;;;;;;30.83;10.20;;;;;;;9.37;90.06;99892.91;8568111;33;20458;-79
2021/12/30 01:22:59;;;;;;;29.42;10.88;;;;;;;9.46;89.29;99902.91;8555926;33;20175;-79
2021/12/30 01:28:04;;;;;;;28.95;11.52;;;;;;;9.65;88.55;99912.91;8558837;33;20189;-78
2021/12/30 01:33:07;;;;;;;22.92;9.45;;;;;;;9.50;88.15;99915.03;8555795;33;20148;-80
2021/12/30 01:38:12;;;;;;;22.77;9.68;;;;;;;9.29;89.10;99912.31;8554328;33;20202;-78
2021/12/30 01:43:17;;;;;;;26.65;8.13;;;;;;;9.23;88.84;99938.78;8555444;33;20226;-78
2021/12/30 01:48:21;;;;;;;22.50;8.35;;;;;;;9.56;88.39;99950.38;8577571;33;20460;-79
2021/12/30 01:53:24;;;;;;;20.58;8.73;;;;;;;9.31;88.16;99957.78;8554423;33;20481;-79
2021/12/30 01:58:29;;;;;;;28.90;8.45;;;;;;;9.38;88.24;99939.34;8554449;33;20945;-79
2021/12/30 02:03:32;;;;;;;25.88;8.68;;;;;;;9.55;87.97;99960.25;8554850;33;20221;-79
2021/12/30 02:08:35;;;;;;;24.13;7.57;;;;;;;9.26;88.50;99973.38;8556581;33;20255;-80
2021/12/30 02:13:40;;;;;;;18.85;7.53;;;;;;;9.35;87.86;99987.84;8553508;33;20624;-78
2021/12/30 02:18:43;;;;;;;31.13;7.97;;;;;;;9.34;87.89;99994.19;8556187;33;20162;-79
2021/12/30 02:23:48;;;;;;;27.05;7.97;;;;;;;9.23;88.13;99995.06;8553661;33;20148;-80
2021/12/30 02:28:51;;;;;;;23.58;8.25;;;;;;;9.19;87.95;100002.50;8578157;33;20190;-80
2021/12/30 02:33:55;;;;;;;26.77;7.32;;;;;;;9.11;87.82;99996.09;8559711;33;20860;-78
2021/12/30 02:39:03;;;;;;;24.15;7.68;;;;;;;9.17;87.73;100003.63;8562240;33;20471;-80
2021/12/30 02:44:09;;;;;;;14.68;6.60;;;;;;;8.96;87.68;99992.78;8568697;33;20539;-80
2021/12/30 02:49:12;;;;;;;17.05;7.85;;;;;;;8.92;87.90;99981.47;8555397;33;20190;-78
2021/12/30 02:54:17;;;;;;;23.48;9.10;;;;;;;8.98;87.45;99988.16;8551855;33;20770;-80
2021/12/30 02:59:20;;;;;;;20.40;7.80;;;;;;;9.06;87.05;99985.72;8557854;33;20159;-79
2021/12/30 03:04:24;;;;;;;23.83;8.25;;;;;;;8.97;87.47;99994.53;8574487;33;20471;-79
2021/12/30 03:09:28;;;;;;;27.50;9.00;;;;;;;9.02;87.59;99998.53;8548393;33;20144;-80
2021/12/30 03:14:31;;;;;;;22.55;9.02;;;;;;;8.87;87.75;99999.75;8549591;33;20440;-79
2021/12/30 03:19:34;;;;;;;26.40;8.07;;;;;;;8.96;87.57;100000.84;8548005;33;20959;-78
2021/12/30 03:24:39;;;;;;;29.17;10.85;;;;;;;8.98;87.68;100005.09;8548659;33;20437;-77
2021/12/30 03:29:42;;;;;;;22.60;9.52;;;;;;;9.14;87.44;100015.44;8547942;33;20167;-79
2021/12/30 03:34:45;;;;;;;22.70;9.25;;;;;;;8.99;87.87;100044.28;8553922;33;21570;-79
2021/12/30 03:39:49;;;;;;;27.10;10.65;;;;;;;9.06;88.30;100058.06;8565666;33;20218;-78
2021/12/30 03:44:56;;;;;;;25.33;10.50;;;;;;;9.17;88.01;100062.56;8561254;33;20469;-79
2021/12/30 03:49:59;;;;;;;30.20;10.35;;;;;;;9.24;88.19;100040.53;8553886;33;21119;-78
2021/12/30 03:55:05;;;;;;;22.85;7.97;;;;;;;9.26;87.27;100051.94;8551673;33;21805;-79
2021/12/30 04:00:11;;;;;;;29.75;12.70;;;;;;;9.39;87.22;100046.44;8548818;33;20540;-78
2021/12/30 04:05:15;;;;;;;31.05;11.90;;;;;;;9.54;86.84;100043.47;8548240;33;20522;-77
2021/12/30 04:10:21;;;;;;;30.55;12.00;;;;;;;9.52;87.12;100062.41;8545988;33;20158;-79
2021/12/30 04:15:24;;;;;;;22.25;10.05;;;;;;;9.54;86.87;100076.50;8546906;33;21204;-78
2021/12/30 04:20:27;;;;;;;35.33;12.80;;;;;;;9.50;87.28;100058.97;8551922;33;20524;-78
2021/12/30 04:25:32;;;;;;;25.67;11.35;;;;;;;9.50;87.37;100048.25;8552996;33;20469;-78
2021/12/30 04:30:36;;;;;;;31.70;14.00;;;;;;;9.40;87.96;100066.06;8556935;33;20145;-78
2021/12/30 04:35:39;;;;;;;33.55;12.35;;;;;;;9.65;87.01;100056.84;8556509;33;20193;-78
2021/12/30 04:40:44;;;;;;;34.28;13.73;;;;;;;9.71;86.96;100040.28;8555145;33;20418;-78
2021/12/30 04:45:47;;;;;;;33.47;15.95;;;;;;;9.79;86.84;100026.22;8558085;33;20803;-79
2021/12/30 04:50:51;;;;;;;29.67;13.93;;;;;;;9.59;87.26;100018.00;8557996;33;20421;-79
2021/12/30 04:55:55;;;;;;;33.63;13.43;;;;;;;9.54;88.03;100033.59;8556860;33;20292;-78
2021/12/30 05:00:58;;;;;;;35.10;14.73;;;;;;;9.54;88.26;100048.84;8555495;33;20418;-78
2021/12/30 05:06:02;;;;;;;33.55;13.68;;;;;;;9.57;87.98;100048.59;8554659;33;20413;-78
2021/12/30 05:11:07;;;;;;;36.40;14.40;;;;;;;9.87;87.53;100037.19;8556155;33;20243;-79
2021/12/30 05:16:09;;;;;;;35.92;14.70;;;;;;;9.90;87.40;100032.44;8555404;33;20415;-79
2021/12/30 05:21:13;;;;;;;36.25;15.77;;;;;;;9.73;89.30;100051.72;8573120;33;20242;-78
2021/12/30 05:26:18;;;;;;;40.03;15.27;;;;;;;9.50;90.50;100026.81;8548972;33;20368;-78
2021/12/30 05:31:21;;;;;;;37.45;14.60;;;;;;;9.50;91.47;100011.56;8546902;33;20148;-79
2021/12/30 05:36:24;;;;;;;35.63;15.23;;;;;;;9.53;91.37;100010.47;8547253;33;20184;-79
2021/12/30 05:41:29;;;;;;;43.47;18.48;;;;;;;9.65;91.23;100009.47;8555244;33;20241;-78
2021/12/30 05:46:32;;;;;;;41.88;16.23;;;;;;;9.59;92.50;100027.88;8553333;33;21091;-78
2021/12/30 05:51:35;;;;;;;43.33;17.10;;;;;;;9.57;92.89;100035.19;8550941;33;20420;-78
2021/12/30 05:56:40;;;;;;;44.25;17.50;;;;;;;9.60;93.11;100053.69;8545581;33;21109;-78
2021/12/30 06:01:43;;;;;;;36.97;16.58;;;;;;;9.62;92.73;100047.22;8544488;33;20243;-79
2021/12/30 06:06:46;;;;;;;33.15;13.63;;;;;;;9.56;91.98;100045.06;8547907;33;21146;-79
2021/12/30 06:11:51;;;;;;;37.50;17.25;;;;;;;9.79;91.54;100063.75;8548747;33;20402;-77
2021/12/30 06:16:54;;;;;;;33.65;15.73;;;;;;;9.86;91.52;100057.81;8544430;33;20505;-80
2021/12/30 06:21:57;;;;;;;28.95;13.55;;;;;;;9.83;92.06;100059.88;8547651;33;20454;-79
2021/12/30 06:27:02;;;;;;;31.48;14.40;;;;;;;9.86;91.92;100071.22;8545486;33;20495;-79
2021/12/30 06:32:06;;;;;;;28.13;13.32;;;;;;;9.87;92.57;100069.38;8549874;33;20160;-79
2021/12/30 06:37:11;;;;;;;24.15;13.27;;;;;;;9.76;92.94;100074.75;8545137;33;20456;-79
2021/12/30 06:42:15;;;;;;;27.52;13.00;;;;;;;9.79;93.39;100069.13;8547322;33;21898;-79
2021/12/30 06:47:19;;;;;;;24.42;11.18;;;;;;;9.79;93.83;100064.63;8556064;33;20406;-78
2021/12/30 06:52:22;;;;;;;21.58;9.95;;;;;;;9.82;94.33;100072.44;8545197;33;20153;-79
2021/12/30 06:57:28;;;;;;;23.10;11.85;;;;;;;9.86;94.42;100059.63;8545047;33;20244;-78
2021/12/30 07:02:31;;;;;;;20.67;8.68;;;;;;;9.88;94.75;100053.16;8544255;33;20163;-79
2021/12/30 07:07:35;;;;;;;22.20;9.10;;;;;;;9.92;93.81;100061.81;8544912;33;20879;-79
2021/12/30 07:12:39;;;;;;;30.73;14.05;;;;;;;9.90;95.98;100075.38;8549318;33;20493;-79
2021/12/30 07:17:42;;;;;;;26.15;13.35;;;;;;;9.95;95.62;100074.97;8554835;33;20424;-79
2021/12/30 07:22:45;;;;;;;30.38;14.25;;;;;;;10.02;95.80;100083.38;8553787;33;20411;-78
2021/12/30 07:27:55;;;;;;;27.00;12.52;;;;;;;10.23;94.18;100076.19;8554282;33;20556;-79
2021/12/30 07:32:58;;;;;;;28.60;13.55;;;;;;;10.32;94.37;100061.97;8558642;33;20279;-79
2021/12/30 07:38:01;;;;;;;26.38;12.05;;;;;;;10.30;94.76;100085.41;8574998;33;20183;-79
2021/12/30 07:43:05;;;;;;;24.67;11.55;;;;;;;10.27;94.68;100083.00;8546828;33;20152;-79
2021/12/30 07:48:08;;;;;;;25.67;13.55;;;;;;;10.42;94.74;100088.88;8532998;33;20480;-79
2021/12/30 07:53:12;;;;;;;24.42;11.50;;;;;;;10.41;94.97;100081.81;8557975;33;20898;-79
2021/12/30 07:58:16;;;;;;;26.45;13.63;;;;;;;10.45;94.50;100093.16;8557465;33;20144;-81
2021/12/30 08:03:19;;;;;;;26.50;14.10;;;;;;;10.43;95.21;100093.28;8557103;33;20520;-79
2021/12/30 08:08:22;;;;;;;29.50;13.77;;;;;;;10.59;95.04;100087.47;8559655;33;20554;-76
2021/12/30 08:13:27;;;;;;;29.83;14.85;;;;;;;10.38;95.69;100091.00;8558583;33;22217;-79
2021/12/30 08:18:31;;;;;;;23.77;13.48;;;;;;;10.67;95.00;100087.66;8555371;33;20592;-77
2021/12/30 08:23:35;;;;;;;22.42;10.75;;;;;;;10.47;96.71;100100.09;8550910;33;20404;-79
2021/12/30 08:28:40;;;;;;;22.10;12.13;;;;;;;10.72;95.36;100100.69;8549835;33;20662;-79
2021/12/30 08:33:43;;;;;;;23.40;10.82;;;;;;;10.75;95.16;100095.91;8555387;33;20383;-79
2021/12/30 08:38:46;;;;;;;11.77;7.43;;;;;;;10.64;95.62;100104.06;8555936;33;20413;-78
2021/12/30 08:43:51;;;;;;;8.52;5.10;;;;;;;10.65;96.27;100108.44;8555629;33;20518;-77
2021/12/30 08:48:54;;;;;;;10.63;6.40;;;;;;;10.82;96.45;100086.31;8556554;33;20170;-77
2021/12/30 08:53:57;;;;;;;9.80;5.38;;;;;;;11.00;95.56;100096.47;8554699;33;20159;-80
2021/12/30 08:59:01;;;;;;;6.67;5.07;;;;;;;10.90;95.98;100090.19;8556630;33;21546;-77
2021/12/30 09:04:05;;;;;;;4.82;3.97;;;;;;;10.73;97.28;100119.38;8552433;33;20500;-78
2021/12/30 09:09:08;;;;;;;6.07;4.88;;;;;;;11.01;95.77;100099.00;8553140;33;20187;-77
2021/12/30 09:14:13;;;;;;;7.70;5.55;;;;;;;10.89;96.41;100107.28;8556064;33;20194;-78
2021/12/30 09:19:17;;;;;;;7.78;5.18;;;;;;;10.73;97.55;100108.63;8554882;33;20503;-77
2021/12/30 09:24:25;;;;;;;10.00;5.75;;;;;;;10.94;97.84;100124.72;8555561;33;20388;-78
2021/12/30 09:29:29;;;;;;;10.25;6.00;;;;;;;10.78;98.32;100122.50;8560056;33;20274;-78
2021/12/30 09:34:33;;;;;;;10.05;5.82;;;;;;;10.80;98.40;100117.00;8559636;33;20924;-79
2021/12/30 09:39:37;;;;;;;8.98;5.25;;;;;;;10.73;98.59;100123.88;8555581;33;20181;-78
2021/12/30 09:44:41;;;;;;;10.95;6.75;;;;;;;10.90;98.20;100127.81;8551121;33;20217;-78
2021/12/30 09:49:45;;;;;;;10.02;5.78;;;;;;;10.81;98.20;100130.31;8552270;33;20422;-80
2021/12/30 09:54:48;;;;;;;10.93;6.53;;;;;;;10.89;98.23;100139.53;8554312;33;21427;-81
2021/12/30 09:59:52;;;;;;;9.45;6.43;;;;;;;10.94;98.52;100148.91;8553038;33;20441;-81
2021/12/30 10:05:06;;;;;;;12.00;6.90;;;;;;;11.10;97.47;100150.25;8552209;33;20836;-80
2021/12/30 10:10:29;;;;;;;11.70;6.30;;;;;;;11.14;98.04;100147.22;8552412;33;20465;-79
2021/12/30 10:15:43;;;;;;;8.55;5.57;;;;;;;11.06;98.69;100155.06;8551915;33;20435;-79
2021/12/30 10:20:47;;;;;;;8.27;4.43;;;;;;;10.97;99.47;100128.97;8545747;33;20124;-80
2021/12/30 10:25:52;;;;;;;8.50;5.10;;;;;;;11.07;98.83;100132.56;8544455;33;20479;-78
2021/12/30 10:31:03;;;;;;;8.80;4.93;;;;;;;11.07;98.67;100132.56;8551413;33;20501;-80
2021/12/30 10:36:16;;;;;;;8.05;4.35;;;;;;;10.96;99.39;100129.97;8571305;33;20407;-78
2021/12/30 10:41:24;;;;;;;8.93;4.70;;;;;;;11.01;99.49;100143.84;8574415;33;20472;-79
2021/12/30 10:46:30;;;;;;;8.65;4.35;;;;;;;10.98;98.70;100153.03;8527941;33;21682;-78
2021/12/30 10:51:41;;;;;;;6.82;4.03;;;;;;;10.98;98.63;100152.19;8533236;33;20414;-78
2021/12/30 10:56:47;;;;;;;6.72;4.00;;;;;;;11.00;97.81;100126.03;8518967;33;20305;-79
2021/12/30 11:01:56;;;;;;;10.75;5.80;;;;;;;11.14;97.35;100123.00;8496447;33;21055;-80
2021/12/30 11:06:59;;;;;;;8.73;5.63;;;;;;;11.10;97.27;100148.41;8497499;33;20418;-79
2021/12/30 11:12:07;;;;;;;11.23;6.18;;;;;;;11.34;96.00;100147.28;8535063;33;21028;-80
2021/12/30 11:17:23;;;;;;;8.05;4.75;;;;;;;11.40;93.60;100182.56;8498145;33;20190;-80
2021/12/30 11:22:29;;;;;;;8.65;5.07;;;;;;;11.46;93.02;100165.91;8492582;33;20544;-78
2021/12/30 11:27:33;;;;;;;8.63;5.43;;;;;;;11.45;92.24;100177.63;8490232;33;20156;-79
2021/12/30 11:32:38;;;;;;;9.70;4.65;;;;;;;11.63;90.97;100172.47;8489610;33;20376;-78
2021/12/30 11:37:41;;;;;;;10.50;6.97;;;;;;;11.69;90.90;100169.22;8487203;33;20231;-79
2021/12/30 11:42:48;;;;;;;10.07;6.03;;;;;;;11.59;91.03;100181.78;8490316;33;20426;-81
2021/12/30 11:47:54;;;;;;;10.40;5.35;;;;;;;11.77;89.99;100178.47;8486911;33;20438;-79
2021/12/30 11:53:06;;;;;;;10.43;4.30;;;;;;;11.67;89.87;100167.66;8489154;33;20157;-81
2021/12/30 11:58:44;;;;;;;8.43;4.85;;;;;;;11.71;89.27;100169.06;8512977;33;20437;-80
2021/12/30 12:03:57;;;;;;;7.65;4.53;;;;;;;11.67;89.34;100183.81;8488605;33;20461;-80
2021/12/30 12:09:43;;;;;;;8.57;5.00;;;;;;;11.86;88.18;100167.72;8479965;33;20149;-78
2021/12/30 12:15:00;;;;;;;6.00;3.78;;;;;;;11.85;88.33;100157.09;8489246;33;20550;-79
2021/12/30 12:20:22;;;;;;;3.13;2.75;;;;;;;11.93;87.79;100171.56;8496848;33;20184;-80
2021/12/30 12:25:29;;;;;;;6.03;3.47;;;;;;;11.70;88.19;100180.84;8533252;33;20256;-79
2021/12/30 12:30:35;;;;;;;7.15;3.60;;;;;;;11.87;86.71;100184.72;8544753;33;20501;-80
2021/12/30 12:35:41;;;;;;;7.30;3.92;;;;;;;11.98;86.58;100189.13;8558263;33;21827;-80
2021/12/30 12:40:53;;;;;;;4.00;2.97;;;;;;;11.91;85.94;100175.38;8523986;33;20417;-80
2021/12/30 12:46:03;;;;;;;5.97;3.00;;;;;;;12.11;85.49;100187.88;8521204;33;20414;-79
2021/12/30 12:51:23;;;;;;;5.55;3.17;;;;;;;11.85;86.70;100178.63;8531997;33;20511;-79
2021/12/30 12:56:32;;;;;;;7.35;3.55;;;;;;;11.85;86.35;100205.56;8579359;33;20256;-80
2021/12/30 13:01:35;;;;;;;4.80;3.63;;;;;;;11.87;86.14;100187.41;8533376;33;20184;-79
2021/12/30 13:06:42;;;;;;;5.85;3.92;;;;;;;11.87;85.78;100177.47;8473648;33;20157;-80
2021/12/30 13:11:49;;;;;;;4.45;3.45;;;;;;;12.10;85.07;100202.34;8464028;33;20920;-80
2021/12/30 13:16:55;;;;;;;9.57;4.60;;;;;;;12.17;84.88;100205.31;8549593;33;20477;-78
2021/12/30 13:22:03;;;;;;;3.50;2.83;;;;;;;11.95;85.10;100196.47;8573020;33;20431;-81
2021/12/30 13:27:09;;;;;;;5.75;3.85;;;;;;;12.11;84.31;100205.88;8605920;33;20128;-79
2021/12/30 13:32:15;;;;;;;5.97;3.80;;;;;;;12.24;83.37;100219.94;8513028;33;20492;-80
2021/12/30 13:37:22;;;;;;;4.22;3.28;;;;;;;12.15;83.36;100199.25;8556197;33;20539;-79
2021/12/30 13:42:29;;;;;;;4.72;3.25;;;;;;;12.16;82.79;100217.09;8556230;33;20156;-79
2021/12/30 13:47:38;;;;;;;5.22;3.03;;;;;;;12.13;83.23;100202.06;8553188;33;20463;-78
2021/12/30 13:52:46;;;;;;;7.75;3.88;;;;;;;11.94;84.82;100221.72;8577093;33;20140;-79
2021/12/30 13:58:04;;;;;;;5.82;3.20;;;;;;;11.53;87.49;100206.56;8558410;33;20198;-77
2021/12/30 14:03:10;;;;;;;6.55;3.88;;;;;;;11.62;87.88;100212.94;8570434;33;20228;-78
2021/12/30 14:08:19;;;;;;;6.80;4.03;;;;;;;11.63;87.10;100217.38;8601206;33;20505;-78
2021/12/30 14:13:39;;;;;;;6.97;4.50;;;;;;;12.04;85.10;100213.69;8607099;33;20438;-77
2021/12/30 14:18:51;;;;;;;7.38;4.10;;;;;;;11.96;84.79;100210.81;8610254;33;20535;-80
2021/12/30 14:24:13;;;;;;;8.18;3.65;;;;;;;11.91;84.46;100234.59;8595647;33;20127;-79
2021/12/30 14:29:20;;;;;;;6.22;3.88;;;;;;;12.10;83.02;100228.41;8528093;33;20450;-80
2021/12/30 14:34:25;;;;;;;4.95;3.20;;;;;;;12.11;82.70;100222.88;8525981;33;20270;-79
2021/12/30 14:39:39;;;;;;;7.68;4.18;;;;;;;12.05;82.90;100226.13;8537730;33;20644;-78
2021/12/30 14:44:46;;;;;;;6.22;4.10;;;;;;;12.20;83.05;100231.13;8534301;33;20423;-79
2021/12/30 14:49:58;;;;;;;7.20;3.55;;;;;;;11.81;85.15;100239.09;8486669;33;20465;-79
2021/12/30 14:55:05;;;;;;;5.35;4.40;;;;;;;11.99;85.14;100232.06;8489332;33;20267;-79
2021/12/30 15:00:13;;;;;;;10.18;4.60;;;;;;;11.67;87.07;100248.38;8536745;33;20328;-79
2021/12/30 15:05:19;;;;;;;7.32;4.07;;;;;;;11.36;89.79;100245.69;8543190;33;20529;-79
2021/12/30 15:10:26;;;;;;;8.75;5.38;;;;;;;11.43;89.57;100262.13;8512999;33;20149;-79
2021/12/30 15:15:31;;;;;;;10.05;5.72;;;;;;;11.40;91.18;100257.00;8540433;33;20211;-78
2021/12/30 15:20:36;;;;;;;9.82;5.95;;;;;;;11.46;91.04;100278.00;8546011;33;20453;-78
2021/12/30 15:25:41;;;;;;;11.75;5.25;;;;;;;11.48;90.14;100298.41;8521161;33;20421;-79
2021/12/30 15:30:45;;;;;;;9.40;5.35;;;;;;;11.30;90.94;100283.88;8511445;33;20265;-78
2021/12/30 15:35:51;;;;;;;9.73;5.75;;;;;;;11.39;91.19;100307.25;8520102;33;20426;-78
2021/12/30 15:40:57;;;;;;;9.50;6.10;;;;;;;11.27;91.63;100294.84;8533012;33;20463;-78
2021/12/30 15:46:01;;;;;;;12.55;6.75;;;;;;;11.27;91.72;100317.25;8527956;33;20148;-79
2021/12/30 15:51:04;;;;;;;9.70;6.82;;;;;;;11.44;90.85;100331.94;8577411;33;20431;-79
2021/12/30 15:56:09;;;;;;;13.48;8.15;;;;;;;11.75;89.42;100323.06;8567818;33;20425;-79
2021/12/30 16:01:12;;;;;;;11.65;8.05;;;;;;;11.70;88.74;100331.53;8548650;33;20559;-78
2021/12/30 16:06:15;;;;;;;11.07;6.28;;;;;;;11.44;89.77;100331.09;8546300;33;21093;-78
2021/12/30 16:11:20;;;;;;;17.80;9.45;;;;;;;11.40;90.73;100335.00;8544932;33;20434;-78
2021/12/30 16:16:24;;;;;;;12.18;7.95;;;;;;;11.19;92.55;100329.59;8568810;33;20188;-78
2021/12/30 16:21:27;;;;;;;16.38;8.23;;;;;;;11.20;92.91;100347.47;8564415;33;20159;-78
2021/12/30 16:26:32;;;;;;;17.38;11.40;;;;;;;10.87;95.93;100349.28;8530483;33;20416;-77
2021/12/30 16:31:35;;;;;;;13.45;8.73;;;;;;;10.99;95.03;100368.88;8527863;33;20452;-77
2021/12/30 16:36:39;;;;;;;18.15;11.48;;;;;;;10.92;95.81;100359.66;8538893;33;20475;-77
2021/12/30 16:41:43;;;;;;;18.13;12.70;;;;;;;10.91;96.22;100361.47;8546759;33;20200;-78
2021/12/30 16:46:47;;;;;;;20.38;11.10;;;;;;;11.07;94.78;100358.34;8543548;33;20480;-77
2021/12/30 16:51:50;;;;;;;16.05;10.45;;;;;;;10.97;95.24;100357.41;8540740;33;22174;-77
2021/12/30 16:56:55;;;;;;;15.40;10.30;;;;;;;11.04;94.78;100364.00;8532114;33;20499;-77
2021/12/30 17:01:58;;;;;;;10.35;6.97;;;;;;;10.90;93.84;100380.41;8548577;33;20905;-77
2021/12/30 17:07:06;;;;;;;14.30;9.38;;;;;;;10.92;93.91;100383.84;8571377;33;20186;-78
2021/12/30 17:12:16;;;;;;;15.75;9.40;;;;;;;11.04;92.56;100399.78;8570438;33;21410;-77
2021/12/30 17:17:19;;;;;;;10.95;6.18;;;;;;;10.91;92.70;100395.53;8570733;33;20128;-78
2021/12/30 17:22:22;;;;;;;8.25;5.60;;;;;;;10.89;93.45;100393.00;8569989;33;20129;-78
2021/12/30 17:27:26;;;;;;;11.02;7.25;;;;;;;10.86;93.57;100390.56;8568378;33;20401;-78
2021/12/30 17:32:29;;;;;;;14.05;8.63;;;;;;;10.98;93.68;100408.34;8563904;33;20578;-78
2021/12/30 17:37:32;;;;;;;18.35;10.27;;;;;;;10.91;96.47;100411.66;8567111;33;20188;-77
2021/12/30 17:42:37;;;;;;;15.82;9.75;;;;;;;10.92;95.26;100405.34;8566518;33;20480;-78
2021/12/30 17:47:45;;;;;;;15.10;8.73;;;;;;;10.78;94.96;100420.75;8586147;33;21246;-78
2021/12/30 17:52:50;;;;;;;15.70;9.02;;;;;;;10.84;96.36;100416.72;8566339;33;20416;-78
2021/12/30 17:57:54;;;;;;;17.85;9.05;;;;;;;10.86;94.45;100417.44;8566392;33;20194;-78
2021/12/30 18:03:00;;;;;;;12.85;8.85;;;;;;;11.16;93.06;100410.53;8562930;33;20338;-78
2021/12/30 18:08:05;;;;;;;19.33;11.85;;;;;;;10.79;95.67;100435.03;8569301;33;20874;-77
2021/12/30 18:13:10;;;;;;;15.45;11.80;;;;;;;10.84;95.75;100414.03;8551793;33;20128;-79
2021/12/30 18:18:14;;;;;;;19.25;11.85;;;;;;;10.88;96.08;100407.41;8554709;33;20399;-80
2021/12/30 18:23:17;;;;;;;22.80;12.95;;;;;;;10.96;95.35;100404.94;8553849;33;20908;-79
2021/12/30 18:28:22;;;;;;;22.73;12.30;;;;;;;11.05;94.63;100427.50;8550395;33;20657;-79
2021/12/30 18:33:25;;;;;;;20.65;12.07;;;;;;;11.01;94.51;100426.06;8555651;33;20297;-78
2021/12/30 18:38:28;;;;;;;19.17;9.75;;;;;;;11.14;93.84;100431.31;8552240;33;20147;-78
2021/12/30 18:43:33;;;;;;;18.38;11.00;;;;;;;11.31;92.08;100425.38;8550968;33;20818;-78
2021/12/30 18:48:36;;;;;;;19.67;11.85;;;;;;;11.56;90.84;100424.19;8552584;33;20178;-78
2021/12/30 18:53:40;;;;;;;18.73;11.93;;;;;;;11.53;90.63;100437.03;8563838;33;21250;-79
2021/12/30 18:58:45;;;;;;;20.50;13.07;;;;;;;11.79;89.47;100437.50;8557516;33;21688;-77
2021/12/30 19:03:49;;;;;;;21.45;13.05;;;;;;;11.99;88.19;100441.22;8548843;33;20467;-79
2021/12/30 19:08:52;;;;;;;19.52;11.60;;;;;;;11.84;88.77;100440.66;8547298;33;20449;-79
2021/12/30 19:13:57;;;;;;;18.40;14.02;;;;;;;11.86;88.48;100426.09;8562554;33;20433;-79
2021/12/30 19:19:01;;;;;;;19.08;13.73;;;;;;;11.86;89.06;100444.09;8541237;33;20187;-79
2021/12/30 19:24:05;;;;;;;18.55;11.82;;;;;;;11.67;89.12;100453.72;8543109;33;20418;-76
2021/12/30 19:29:10;;;;;;;17.98;10.27;;;;;;;11.85;88.22;100450.47;8530297;33;20414;-79
2021/12/30 19:34:13;;;;;;;18.73;12.52;;;;;;;11.91;87.68;100448.09;8547845;33;20383;-77
2021/12/30 19:39:16;;;;;;;21.80;13.75;;;;;;;12.04;87.49;100457.78;8500316;33;20152;-78
2021/12/30 19:44:21;;;;;;;17.48;9.32;;;;;;;11.87;87.35;100456.53;8508594;33;20424;-78
2021/12/30 19:49:24;;;;;;;22.20;12.35;;;;;;;11.89;87.52;100471.59;8485353;33;20490;-78
2021/12/30 19:54:28;;;;;;;13.93;9.23;;;;;;;11.84;88.18;100478.34;8491190;33;20487;-79
2021/12/30 19:59:33;;;;;;;20.20;13.25;;;;;;;12.11;87.47;100475.97;8494402;33;20559;-79
2021/12/30 20:04:36;;;;;;;16.30;10.60;;;;;;;11.75;88.96;100471.06;8480630;33;20198;-79
2021/12/30 20:09:39;;;;;;;18.80;11.95;;;;;;;11.78;89.87;100477.03;8570007;33;20273;-79
2021/12/30 20:14:43;;;;;;;18.05;11.93;;;;;;;11.48;91.54;100470.53;8504974;33;20148;-79
2021/12/30 20:19:51;;;;;;;19.70;12.88;;;;;;;11.51;91.61;100469.44;8512806;33;20825;-80
2021/12/30 20:24:55;;;;;;;19.65;13.38;;;;;;;11.72;90.77;100467.63;8554096;33;20475;-78
2021/12/30 20:29:59;;;;;;;19.23;12.20;;;;;;;11.57;91.22;100476.16;8579666;33;20137;-79
2021/12/30 20:35:02;;;;;;;22.42;12.82;;;;;;;11.68;89.39;100468.91;8518126;33;20435;-79
2021/12/30 20:40:08;;;;;;;20.65;12.95;;;;;;;11.78;89.35;100501.25;8513064;33;21278;-78
2021/12/30 20:45:13;;;;;;;20.23;13.63;;;;;;;11.69;90.27;100475.13;8546991;33;20246;-78
2021/12/30 20:50:22;;;;;;;21.63;12.32;;;;;;;11.60;91.63;100492.03;8546139;33;20180;-79
2021/12/30 20:55:28;;;;;;;19.60;11.68;;;;;;;11.65;91.33;100477.19;8557652;33;20322;-79
2021/12/30 21:00:34;;;;;;;15.48;10.20;;;;;;;11.41;92.12;100493.56;8547740;33;20240;-78
2021/12/30 21:05:39;;;;;;;15.93;10.35;;;;;;;11.59;91.43;100509.16;8544170;33;20668;-78
2021/12/30 21:10:44;;;;;;;18.77;10.85;;;;;;;11.69;91.26;100508.25;8578595;33;20460;-78
2021/12/30 21:15:49;;;;;;;14.88;10.63;;;;;;;11.48;93.32;100515.44;8543240;33;20507;-77
2021/12/30 21:20:54;;;;;;;19.65;12.07;;;;;;;11.37;94.51;100513.63;8556964;33;21192;-78
2021/12/30 21:25:59;;;;;;;17.63;11.95;;;;;;;11.34;94.67;100534.53;8546959;33;20465;-78
2021/12/30 21:31:05;;;;;;;18.55;12.85;;;;;;;11.34;95.15;100542.63;8545527;33;20205;-78
2021/12/30 21:36:10;;;;;;;17.83;12.13;;;;;;;11.38;95.56;100533.31;8532195;33;20703;-80
2021/12/30 21:41:14;;;;;;;12.52;8.55;;;;;;;11.38;95.27;100544.94;8568354;33;20178;-78
2021/12/30 21:46:19;;;;;;;14.30;8.40;;;;;;;11.36;95.12;100559.50;8571578;33;20441;-79
2021/12/30 21:51:27;;;;;;;17.55;10.88;;;;;;;11.45;94.54;100551.50;8557251;33;20179;-77
2021/12/30 21:56:30;;;;;;;11.73;7.88;;;;;;;11.44;94.07;100565.94;8553345;33;20172;-77
2021/12/30 22:01:34;;;;;;;13.60;8.23;;;;;;;11.39;94.30;100564.63;8558184;33;20160;-78
2021/12/30 22:06:38;;;;;;;12.98;8.65;;;;;;;11.39;94.56;100564.63;8560531;33;20494;-78
2021/12/30 22:11:41;;;;;;;10.73;6.78;;;;;;;11.34;94.48;100559.59;8553415;33;20195;-77
2021/12/30 22:16:46;;;;;;;10.60;7.00;;;;;;;11.35;94.11;100571.22;8551189;33;20425;-78
2021/12/30 22:21:50;;;;;;;12.95;7.97;;;;;;;11.73;92.93;100573.44;8568965;33;20510;-77
2021/12/30 22:26:53;;;;;;;6.40;4.57;;;;;;;11.33;94.05;100583.94;8547322;33;20133;-78
2021/12/30 22:31:57;;;;;;;11.15;6.18;;;;;;;11.33;94.38;100581.25;8527594;33;20151;-78
2021/12/30 22:37:01;;;;;;;9.73;6.47;;;;;;;11.19;94.13;100569.78;8541235;33;20275;-78
2021/12/30 22:42:04;;;;;;;9.52;6.50;;;;;;;11.59;92.51;100587.19;8518377;33;20661;-77
2021/12/30 22:47:09;;;;;;;10.02;6.13;;;;;;;11.55;91.77;100564.22;8519453;33;21762;-77
2021/12/30 22:52:12;;;;;;;9.27;5.10;;;;;;;11.70;90.83;100568.31;8519359;33;20417;-78
2021/12/30 22:57:16;;;;;;;8.30;5.20;;;;;;;11.64;90.15;100561.59;8528360;33;20427;-78
2021/12/30 23:02:21;;;;;;;6.55;4.43;;;;;;;11.71;89.55;100561.94;8514282;33;20179;-77
2021/12/30 23:07:24;;;;;;;12.90;6.95;;;;;;;11.72;89.80;100563.66;8496634;33;20444;-77
2021/12/30 23:12:27;;;;;;;9.00;5.95;;;;;;;11.66;89.75;100559.66;8495815;33;20446;-79
2021/12/30 23:17:33;;;;;;;9.45;6.38;;;;;;;11.74;89.50;100559.03;8501718;33;20415;-77
2021/12/30 23:22:38;;;;;;;10.75;6.18;;;;;;;11.49;89.92;100557.47;8541299;33;20483;-78
2021/12/30 23:27:42;;;;;;;9.48;6.70;;;;;;;11.72;88.94;100567.22;8562783;33;20931;-78